LFBA/AGF METAR and TAF weather

Enter ICAO airport designator
Station Type Date Time Source
LFBA METAR 2020/07/13 15:00 UTC NOAA

LFBA 131500Z AUTO 32010KT 290V350 CAVOK 29/09 Q1020 NOSIG


Station Type Date Time Source
LFBA Decoded METAR 2020/07/13 15:00 UTC NOAA

Agen, France (LFBA) 44-11N 000-36E 60M
Jul 13, 2020 - 11:00 AM EDT / 2020.07.13 1500 UTC
Wind: from the NW (320 degrees) at 12 MPH (10 KT) (direction variable):0
Visibility: greater than 7 mile(s):0
Temperature: 84 F (29 C)
Dew Point: 48 F (9 C)
Relative Humidity: 28%
Pressure (altimeter): 30.12 in. Hg (1020 hPa)
ob: LFBA 131500Z AUTO 32010KT 290V350 CAVOK 29/09 Q1020 NOSIG
cycle: 15

Station Type Date Time Source
LFBA TAF 2014/12/22 20:03 UTC NOAA

TAF
AMD TAF
AMD LFBA 222037Z 2220/2224 12007KT 0400 FG VV///
TEMPO 2220/2224 0100 PROB30
TEMPO 2222/2224 FZFG

Example: see airport list